Time;durP1;ratioP1;P1;durP2;ratioP2;P2;SDS_P1;SDS_P2;PMS_P1;PMS_P2;Temp;Humidity;BMP_temperature;BMP_pressure;BME280_temperature;BME280_humidity;BME280_pressure;Samples;Min_cycle;Max_cycle;Signal;HPM_P1;HPM_P2
2021/12/23 00:05:59;;;;;;;0.20;0.10;;;11.10;99.90;;;;;;20421776;29;20229;-70
2021/12/23 00:16:16;;;;;;;0.20;0.00;;;11.10;99.90;;;;;;20424346;29;20233;-71
2021/12/23 00:26:21;;;;;;;0.20;0.10;;;11.10;99.90;;;;;;20421189;28;20229;-70
2021/12/23 00:36:26;;;;;;;0.20;0.10;;;11.10;99.90;;;;;;20418554;29;20210;-70
2021/12/23 00:46:29;;;;;;;0.20;0.10;;;11.00;99.90;;;;;;20422290;29;20198;-70
2021/12/23 00:56:36;;;;;;;0.20;0.07;;;11.00;99.90;;;;;;20421959;29;20245;-71
2021/12/23 01:06:42;;;;;;;0.20;0.10;;;11.10;99.90;;;;;;20602867;23;20235;-74
2021/12/23 01:17:11;;;;;;;0.20;0.10;;;11.00;99.90;;;;;;20663888;28;20282;-77
2021/12/23 01:27:14;;;;;;;0.20;0.00;;;11.00;99.90;;;;;;20664735;28;20325;-77
2021/12/23 01:37:19;;;;;;;0.20;0.10;;;11.00;99.90;;;;;;20671011;28;20214;-76
2021/12/23 01:47:23;;;;;;;0.20;0.00;;;11.10;99.90;;;;;;20679718;28;20742;-75
2021/12/23 01:57:32;;;;;;;0.20;0.10;;;11.20;99.90;;;;;;20678538;28;20231;-76
2021/12/23 02:07:36;;;;;;;0.20;0.00;;;11.20;99.90;;;;;;20690117;23;20581;-69
2021/12/23 02:17:41;;;;;;;0.20;0.10;;;11.30;99.90;;;;;;20674410;28;20311;-71
2021/12/23 02:27:47;;;;;;;0.20;0.10;;;11.30;99.90;;;;;;20673906;28;20223;-69
2021/12/23 02:37:52;;;;;;;0.20;0.10;;;11.30;99.90;;;;;;20671371;28;20199;-70
2021/12/23 02:47:57;;;;;;;0.20;0.10;;;11.20;99.90;;;;;;20672323;28;20226;-69
2021/12/23 02:58:00;;;;;;;0.20;0.10;;;11.20;99.90;;;;;;20655347;28;20203;-70
2021/12/23 03:08:05;;;;;;;0.20;0.00;;;11.10;99.90;;;;;;21353090;23;20725;-74
2021/12/23 03:18:09;;;;;;;0.20;0.10;;;11.10;99.90;;;;;;20916341;28;20204;-77
2021/12/23 03:28:15;;;;;;;0.20;0.10;;;11.20;99.90;;;;;;20915973;28;20317;-75
2021/12/23 03:38:19;;;;;;;0.20;0.10;;;11.30;99.90;;;;;;20855707;28;20561;-76
2021/12/23 03:48:24;;;;;;;0.20;0.10;;;11.30;99.90;;;;;;20831703;28;20361;-75
2021/12/23 03:58:28;;;;;;;0.20;0.00;;;11.30;99.90;;;;;;20831151;28;20218;-75
2021/12/23 04:08:33;;;;;;;0.20;0.10;;;11.40;99.90;;;;;;20812770;28;20332;-76
2021/12/23 04:18:37;;;;;;;0.20;0.10;;;11.40;99.90;;;;;;20911505;28;20292;-76
2021/12/23 04:28:47;;;;;;;0.20;0.10;;;11.50;99.90;;;;;;20912269;28;20228;-76
2021/12/23 04:38:50;;;;;;;0.20;0.10;;;11.60;99.90;;;;;;20830640;28;20663;-76
2021/12/23 04:48:55;;;;;;;0.20;0.00;;;11.90;99.90;;;;;;20832116;28;20590;-77
2021/12/23 04:58:59;;;;;;;0.20;0.00;;;11.90;99.90;;;;;;20968492;28;20189;-75
2021/12/23 05:09:04;;;;;;;0.20;0.00;;;12.00;99.90;;;;;;20762551;23;20238;-69
2021/12/23 05:19:08;;;;;;;0.20;0.00;;;11.90;99.90;;;;;;20759938;28;20205;-69
2021/12/23 05:29:14;;;;;;;0.20;0.10;;;12.00;99.90;;;;;;20755664;28;20722;-69
2021/12/23 05:39:18;;;;;;;0.20;0.10;;;12.00;99.90;;;;;;20720219;28;20285;-69
2021/12/23 05:49:23;;;;;;;0.20;0.10;;;12.00;99.90;;;;;;20756509;28;20640;-68
2021/12/23 05:59:26;;;;;;;0.20;0.10;;;12.00;99.90;;;;;;20704204;28;20199;-69
2021/12/23 06:09:32;;;;;;;0.20;0.10;;;12.00;99.90;;;;;;20680132;28;20309;-70
2021/12/23 06:19:35;;;;;;;0.20;0.10;;;12.00;99.90;;;;;;20755047;28;20203;-69
2021/12/23 06:29:40;;;;;;;0.20;0.10;;;11.80;99.90;;;;;;20737144;28;20223;-69
2021/12/23 06:39:46;;;;;;;0.20;0.10;;;11.70;99.90;;;;;;20753254;28;20199;-68
2021/12/23 06:49:51;;;;;;;0.20;0.00;;;11.60;99.90;;;;;;20753200;28;20305;-70
2021/12/23 06:59:55;;;;;;;0.20;0.10;;;11.60;99.90;;;;;;20749174;28;20590;-69
2021/12/23 07:10:02;;;;;;;0.20;0.10;;;11.60;99.90;;;;;;20750017;28;20226;-68
2021/12/23 07:20:09;;;;;;;0.20;0.00;;;11.80;99.90;;;;;;20749659;28;20254;-69
2021/12/23 07:30:18;;;;;;;0.20;0.10;;;11.80;99.90;;;;;;20748038;28;20222;-70
2021/12/23 07:40:22;;;;;;;0.20;0.00;;;11.70;99.90;;;;;;20747301;28;20315;-70
2021/12/23 07:50:27;;;;;;;0.20;0.10;;;11.90;99.90;;;;;;20745784;28;20318;-69
2021/12/23 08:00:32;;;;;;;0.20;0.00;;;12.50;99.90;;;;;;20723097;28;20378;-69
2021/12/23 08:10:38;;;;;;;0.20;0.10;;;12.90;99.90;;;;;;20749197;28;20257;-69
2021/12/23 08:20:41;;;;;;;0.20;0.10;;;12.90;99.90;;;;;;20729198;28;20216;-69
2021/12/23 08:30:48;;;;;;;0.20;0.00;;;12.90;99.90;;;;;;20742698;28;20274;-73
2021/12/23 08:40:51;;;;;;;0.20;0.10;;;13.00;99.90;;;;;;20695239;28;20222;-71
2021/12/23 08:50:57;;;;;;;0.20;0.10;;;13.00;99.90;;;;;;20734852;28;20676;-71
2021/12/23 09:01:00;;;;;;;0.20;0.00;;;13.20;99.90;;;;;;20787819;28;20652;-70
2021/12/23 09:11:06;;;;;;;0.20;0.10;;;13.20;99.90;;;;;;20714481;28;20684;-71
2021/12/23 09:21:11;;;;;;;0.20;0.10;;;13.20;99.90;;;;;;20719128;28;20681;-70
2021/12/23 09:42:00;;;;;;;0.20;0.07;;;13.30;99.90;;;;;;20675985;28;20221;-68
2021/12/23 09:52:09;;;;;;;0.20;0.00;;;13.30;99.90;;;;;;20642978;28;20231;-69
2021/12/23 10:02:14;;;;;;;0.20;0.07;;;13.50;99.90;;;;;;20659886;28;20227;-69
2021/12/23 10:33:48;;;;;;;0.20;0.03;;;14.10;99.90;;;;;;21130847;28;20593;-69
2021/12/23 10:43:57;;;;;;;0.20;0.10;;;13.90;99.90;;;;;;21130254;28;20277;-69
2021/12/23 10:54:21;;;;;;;0.20;0.03;;;14.00;99.90;;;;;;21129763;28;20222;-68
2021/12/23 11:04:27;;;;;;;0.20;0.00;;;13.90;99.90;;;;;;21128068;28;20662;-66
2021/12/23 11:35:48;;;;;;;0.20;0.00;;;14.10;99.90;;;;;;21051593;28;20238;-68
2021/12/23 11:45:53;;;;;;;0.20;0.07;;;14.20;99.90;;;;;;21051848;28;20557;-69
2021/12/23 11:55:58;;;;;;;0.20;0.00;;;14.00;99.90;;;;;;21051246;28;20235;-71
2021/12/23 12:06:18;;;;;;;0.20;0.03;;;13.80;99.90;;;;;;21067919;28;20200;-68
2021/12/23 12:16:43;;;;;;;0.20;0.10;;;13.90;99.90;;;;;;21047002;28;20320;-70
2021/12/23 12:26:58;;;;;;;0.20;0.10;;;13.90;99.90;;;;;;21047638;28;20223;-71
2021/12/23 12:37:03;;;;;;;0.20;0.00;;;13.90;99.90;;;;;;21065757;28;20791;-69
2021/12/23 12:47:13;;;;;;;0.20;0.00;;;13.90;99.90;;;;;;21066068;28;20203;-69
2021/12/23 12:57:19;;;;;;;0.20;0.00;;;14.00;99.90;;;;;;21064990;28;20249;-69
2021/12/23 13:07:29;;;;;;;0.20;0.00;;;13.90;99.90;;;;;;21065232;28;20196;-69
2021/12/23 13:17:54;;;;;;;0.20;0.10;;;13.80;99.90;;;;;;21062770;28;20236;-73
2021/12/23 13:28:00;;;;;;;0.20;0.00;;;13.90;99.90;;;;;;21064849;28;20619;-70
2021/12/23 13:38:04;;;;;;;0.20;0.10;;;14.00;99.90;;;;;;21061167;28;20885;-70
2021/12/23 13:48:10;;;;;;;0.20;0.00;;;14.00;99.90;;;;;;21042227;28;20224;-68
2021/12/23 13:58:24;;;;;;;0.20;0.00;;;14.10;99.90;;;;;;21059452;28;20227;-68
2021/12/23 14:08:32;;;;;;;0.20;0.10;;;14.20;99.90;;;;;;21059497;28;20287;-69
2021/12/23 14:18:57;;;;;;;0.20;0.10;;;14.20;99.90;;;;;;21055630;28;20239;-70
2021/12/23 14:29:08;;;;;;;0.20;0.00;;;14.40;99.90;;;;;;21018478;28;20185;-69
2021/12/23 14:39:14;;;;;;;0.20;0.00;;;14.50;99.90;;;;;;20973362;28;20223;-70
2021/12/23 14:49:58;;;;;;;0.20;0.00;;;14.50;99.90;;;;;;20970723;28;20279;-69
2021/12/23 15:00:14;;;;;;;0.20;0.00;;;14.50;99.90;;;;;;20971863;28;20228;-68
2021/12/23 15:10:35;;;;;;;0.20;0.00;;;14.70;99.90;;;;;;21000345;28;20227;-70
2021/12/23 15:20:46;;;;;;;0.20;0.00;;;14.60;99.90;;;;;;21069964;28;20297;-70
2021/12/23 15:30:52;;;;;;;0.20;0.00;;;14.60;99.90;;;;;;21050683;28;20199;-69
2021/12/23 15:40:55;;;;;;;0.20;0.00;;;15.10;99.90;;;;;;20982917;28;20224;-70
2021/12/23 15:51:01;;;;;;;0.20;0.10;;;15.30;99.90;;;;;;20983095;28;20713;-68
2021/12/23 16:01:05;;;;;;;0.20;0.10;;;14.90;99.90;;;;;;20982155;28;20248;-70
2021/12/23 16:11:11;;;;;;;0.20;0.00;;;14.30;99.90;;;;;;20982688;28;20277;-70
2021/12/23 16:21:15;;;;;;;0.20;0.03;;;13.80;99.90;;;;;;21062623;28;20323;-71
2021/12/23 16:31:22;;;;;;;0.20;0.00;;;13.70;99.90;;;;;;21021941;28;20203;-69
2021/12/23 16:41:27;;;;;;;0.20;0.00;;;13.10;99.90;;;;;;20977880;28;20224;-69
2021/12/23 16:51:33;;;;;;;0.20;0.10;;;12.80;99.90;;;;;;20979048;28;20196;-69
2021/12/23 17:01:37;;;;;;;0.20;0.10;;;12.20;99.90;;;;;;20976623;28;20252;-70
2021/12/23 17:11:43;;;;;;;0.20;0.10;;;11.90;99.90;;;;;;21002011;28;20196;-69
2021/12/23 17:21:52;;;;;;;0.20;0.10;;;11.90;99.90;;;;;;21060067;28;20236;-69
2021/12/23 17:31:58;;;;;;;0.30;0.30;;;11.60;99.90;;;;;;21031327;28;20274;-70
2021/12/23 17:42:02;;;;;;;0.20;0.10;;;11.40;99.90;;;;;;20973153;28;20306;-70
2021/12/23 17:52:08;;;;;;;41.03;38.30;;;11.30;99.90;;;;;;20955393;28;20279;-69
2021/12/23 18:02:12;;;;;;;0.20;0.10;;;11.10;99.90;;;;;;20976596;28;20256;-68
2021/12/23 18:12:19;;;;;;;0.20;0.00;;;11.00;99.90;;;;;;21015354;28;20717;-69
2021/12/23 18:22:23;;;;;;;0.20;0.10;;;10.90;99.90;;;;;;21052510;28;20232;-69
2021/12/23 18:32:28;;;;;;;0.20;0.10;;;10.90;99.90;;;;;;21067021;28;20192;-68
2021/12/23 18:42:38;;;;;;;0.20;0.10;;;10.40;99.90;;;;;;21080245;28;20244;-68
2021/12/23 18:52:44;;;;;;;0.20;0.07;;;10.40;99.90;;;;;;21084308;28;20199;-69
2021/12/23 19:03:03;;;;;;;0.20;0.00;;;10.30;99.90;;;;;;21084737;28;20281;-68
2021/12/23 19:13:08;;;;;;;0.20;0.10;;;10.60;99.90;;;;;;21086556;28;20215;-68
2021/12/23 19:23:12;;;;;;;0.20;0.00;;;10.50;99.90;;;;;;21067207;28;20273;-72
2021/12/23 19:33:18;;;;;;;0.20;0.03;;;10.70;99.90;;;;;;21082977;28;20200;-68
2021/12/23 19:43:22;;;;;;;0.20;0.10;;;10.90;99.90;;;;;;21082053;28;20215;-68
2021/12/23 19:53:27;;;;;;;0.20;0.10;;;10.80;99.90;;;;;;21061566;28;20194;-72
2021/12/23 20:03:32;;;;;;;0.20;0.10;;;10.60;99.90;;;;;;21049994;28;20282;-71
2021/12/23 20:13:38;;;;;;;0.20;0.10;;;10.60;99.90;;;;;;21020212;28;20230;-69
2021/12/23 20:23:42;;;;;;;0.20;0.10;;;10.70;99.90;;;;;;21081240;28;20220;-69
2021/12/23 20:33:50;;;;;;;0.20;0.10;;;10.80;99.90;;;;;;21079663;28;20204;-68
2021/12/23 20:43:57;;;;;;;0.20;0.10;;;10.90;99.90;;;;;;21034785;28;20524;-69
2021/12/23 20:54:02;;;;;;;0.20;0.10;;;11.20;99.90;;;;;;20992523;28;20377;-70
2021/12/23 21:04:06;;;;;;;0.20;0.10;;;11.50;99.90;;;;;;21023637;28;20224;-69
2021/12/23 21:14:11;;;;;;;0.20;0.10;;;11.80;99.90;;;;;;21075168;28;20689;-70
2021/12/23 21:24:15;;;;;;;0.20;0.10;;;11.90;99.90;;;;;;20984027;28;20231;-70
2021/12/23 21:34:21;;;;;;;0.20;0.10;;;11.40;99.90;;;;;;20961208;28;20835;-70
2021/12/23 21:44:35;;;;;;;0.20;0.10;;;11.00;99.90;;;;;;20963194;28;20951;-71
2021/12/23 21:54:46;;;;;;;0.20;0.10;;;10.50;99.90;;;;;;20977390;28;20206;-71
2021/12/23 22:04:50;;;;;;;0.20;0.10;;;10.30;99.90;;;;;;20961191;28;20226;-70
2021/12/23 22:14:55;;;;;;;0.20;0.10;;;10.20;99.90;;;;;;20955723;28;20259;-71
2021/12/23 22:24:58;;;;;;;0.20;0.00;;;10.00;99.90;;;;;;20975291;28;20560;-70
2021/12/23 22:35:05;;;;;;;0.20;0.00;;;9.90;99.90;;;;;;20981001;28;20564;-72
2021/12/23 22:45:10;;;;;;;0.20;0.10;;;9.60;99.90;;;;;;20964897;28;20296;-70
2021/12/23 22:55:16;;;;;;;0.20;0.10;;;9.80;99.90;;;;;;20981209;28;20196;-71
2021/12/23 23:05:25;;;;;;;0.20;0.00;;;9.80;99.90;;;;;;20978059;28;20228;-71
2021/12/23 23:25:51;;;;;;;0.20;0.10;;;10.00;99.90;;;;;;20983811;28;20209;-69
2021/12/23 23:35:56;;;;;;;0.20;0.10;;;10.50;99.90;;;;;;21031093;28;20228;-71
2021/12/23 23:46:08;;;;;;;0.20;0.00;;;10.40;99.90;;;;;;21085651;28;20218;-71
2021/12/23 23:56:13;;;;;;;0.20;0.10;;;10.50;99.90;;;;;;21085026;28;20560;-72
